Monte Tamaro — DFKP2 — position and weather

sailwx.info

Track history (hours):
 
Tides and Currents Weather Stations Pressure Air Temp Water Temp Dewpoint Dewpoint Depression Visibility Wind Speed Wind Dir Waves Ship Positions

Monte Tamaro

Last reported at 2015-Apr-26 09:00 UTC. Time now 2015-Apr-27 20:43 UTC.
Position S 03°42' W 037°18'.

Length 272.1 m; beam 40.1 m; draft 13.2 m.

Type: Ship (hazmat cat B). MMSI: 218132000.

Wind from 120 at 16 knots

Waves 1.0 meters (3 feet), 3 second period

Barometer 1012.9 mb
Air temperature 27.4 ° C
Visibility: greater than 10.8 NM
Dewpoint 23.2 ° C
Water temperature 29.0 ° C

Date/timePositionNaut miles runAvg speedWind from/ knotsBaromVisibWave heightAir tempDewpointWater temp
2015-Apr-26 09:00S 03°42' W 037°18'56313.3 120 / 161012.910.8 1.027.423.229.0
2015-Apr-24 14:33S 13°02' W 038°16'1716.6
2015-Apr-24 13:33S 13°08' W 038°31'1110.7
2015-Apr-24 12:33S 12°57' W 038°33'2 2.1
2015-Apr-24 11:33S 12°57' W 038°31'0 0.0
2015-Apr-24 10:33S 12°57' W 038°31'0 0.0
2015-Apr-24 09:33S 12°57' W 038°30'0 0.0
2015-Apr-24 08:33S 12°57' W 038°30'0 0.0
2015-Apr-24 07:33S 12°57' W 038°31'0 0.0
2015-Apr-24 06:33S 12°57' W 038°31'0 0.0
2015-Apr-24 05:33S 12°57' W 038°30'0 0.0
2015-Apr-24 04:33S 12°57' W 038°31'0 0.3
2015-Apr-24 03:33S 12°57' W 038°31'4 3.5
2015-Apr-24 02:33S 12°59' W 038°33'1211.7
2015-Apr-24 01:33S 13°11' W 038°35'9220.2
2015-Apr-23 21:00S 14°42' W 038°18'   130 / 81013.910.8 27.222.429.0
2015-Apr-21 15:29S 24°02' W 045°53'1920.7
2015-Apr-21 14:34S 24°05' W 046°14'8 7.5
2015-Apr-21 13:33S 24°00' W 046°20'3 3.4
2015-Apr-21 12:33S 23°58' W 046°18'0 0.0
2015-Apr-21 11:30S 23°58' W 046°18'0 0.0
2015-Apr-21 10:33S 23°58' W 046°18'0 0.0
2015-Apr-21 09:33S 23°58' W 046°18'0 0.0
2015-Apr-21 08:33S 23°58' W 046°18'0 0.0
2015-Apr-21 07:30S 23°58' W 046°18'0 0.0
2015-Apr-21 06:33S 23°58' W 046°18'0 0.0
2015-Apr-21 05:33S 23°58' W 046°18'0 0.0
2015-Apr-21 04:33S 23°58' W 046°18'0 0.0
2015-Apr-21 03:30S 23°58' W 046°18'0 0.0
2015-Apr-21 02:33S 23°58' W 046°18'0 0.0
2015-Apr-21 01:33S 23°58' W 046°18'0 0.0
2015-Apr-21 00:33S 23°58' W 046°18'0 0.0
2015-Apr-20 23:30S 23°58' W 046°18'0 0.0
2015-Apr-20 22:33S 23°58' W 046°18'0 0.0
2015-Apr-20 21:33S 23°58' W 046°18'0 0.0
2015-Apr-20 20:27S 23°58' W 046°18'0 0.0
2015-Apr-20 19:33S 23°58' W 046°18'0 0.0
2015-Apr-20 18:30S 23°58' W 046°18'0 0.0
2015-Apr-20 17:33S 23°58' W 046°18'5 4.8
2015-Apr-20 16:33S 24°02' W 046°21'5 4.9
2015-Apr-20 15:33S 24°06' W 046°24'0 0.5
2015-Apr-20 14:33S 24°06' W 046°24'0 0.3
2015-Apr-20 13:33S 24°06' W 046°24'10 9.9
2015-Apr-20 12:33S 24°16' W 046°27'1313.4
2015-Apr-20 11:33S 24°28' W 046°32'1613.1
2015-Apr-20 10:22S 24°41' W 046°42'183 6.4
2015-Apr-19 05:33S 27°26' W 048°12'1919.3
2015-Apr-19 04:33S 27°45' W 048°17'  
Track history (hours):
 
Tides and Currents Weather Stations Pressure Air Temp Water Temp Dewpoint Dewpoint Depression Visibility Wind Speed Wind Dir Waves Ship Positions

Monte Tamaro

Last reported at 2015-Apr-26 09:00 UTC. Time now 2015-Apr-27 20:43 UTC.
Position S 03°42' W 037°18'.

Length 272.1 m; beam 40.1 m; draft 13.2 m.

Type: Ship (hazmat cat B). MMSI: 218132000.

Wind from 120 at 16 knots

Waves 1.0 meters (3 feet), 3 second period

Barometer 1012.9 mb
Air temperature 27.4 ° C
Visibility: greater than 10.8 NM
Dewpoint 23.2 ° C
Water temperature 29.0 ° C

Date/timePositionNaut miles runAvg speedWind from/ knotsBaromVisibWave heightAir tempDewpointWater temp
2015-Apr-26 09:00S 03°42' W 037°18'56313.3 120 / 161012.910.8 1.027.423.229.0
2015-Apr-24 14:33S 13°02' W 038°16'1716.6
2015-Apr-24 13:33S 13°08' W 038°31'1110.7
2015-Apr-24 12:33S 12°57' W 038°33'2 2.1
2015-Apr-24 11:33S 12°57' W 038°31'0 0.0
2015-Apr-24 10:33S 12°57' W 038°31'0 0.0
2015-Apr-24 09:33S 12°57' W 038°30'0 0.0
2015-Apr-24 08:33S 12°57' W 038°30'0 0.0
2015-Apr-24 07:33S 12°57' W 038°31'0 0.0
2015-Apr-24 06:33S 12°57' W 038°31'0 0.0
2015-Apr-24 05:33S 12°57' W 038°30'0 0.0
2015-Apr-24 04:33S 12°57' W 038°31'0 0.3
2015-Apr-24 03:33S 12°57' W 038°31'4 3.5
2015-Apr-24 02:33S 12°59' W 038°33'1211.7
2015-Apr-24 01:33S 13°11' W 038°35'9220.2
2015-Apr-23 21:00S 14°42' W 038°18'   130 / 81013.910.8 27.222.429.0
2015-Apr-21 15:29S 24°02' W 045°53'1920.7
2015-Apr-21 14:34S 24°05' W 046°14'8 7.5
2015-Apr-21 13:33S 24°00' W 046°20'3 3.4
2015-Apr-21 12:33S 23°58' W 046°18'0 0.0
2015-Apr-21 11:30S 23°58' W 046°18'0 0.0
2015-Apr-21 10:33S 23°58' W 046°18'0 0.0
2015-Apr-21 09:33S 23°58' W 046°18'0 0.0
2015-Apr-21 08:33S 23°58' W 046°18'0 0.0
2015-Apr-21 07:30S 23°58' W 046°18'0 0.0
2015-Apr-21 06:33S 23°58' W 046°18'0 0.0
2015-Apr-21 05:33S 23°58' W 046°18'0 0.0
2015-Apr-21 04:33S 23°58' W 046°18'0 0.0
2015-Apr-21 03:30S 23°58' W 046°18'0 0.0
2015-Apr-21 02:33S 23°58' W 046°18'0 0.0
2015-Apr-21 01:33S 23°58' W 046°18'0 0.0
2015-Apr-21 00:33S 23°58' W 046°18'0 0.0
2015-Apr-20 23:30S 23°58' W 046°18'0 0.0
2015-Apr-20 22:33S 23°58' W 046°18'0 0.0
2015-Apr-20 21:33S 23°58' W 046°18'0 0.0
2015-Apr-20 20:27S 23°58' W 046°18'0 0.0
2015-Apr-20 19:33S 23°58' W 046°18'0 0.0
2015-Apr-20 18:30S 23°58' W 046°18'0 0.0
2015-Apr-20 17:33S 23°58' W 046°18'5 4.8
2015-Apr-20 16:33S 24°02' W 046°21'5 4.9
2015-Apr-20 15:33S 24°06' W 046°24'0 0.5
2015-Apr-20 14:33S 24°06' W 046°24'0 0.3
2015-Apr-20 13:33S 24°06' W 046°24'10 9.9
2015-Apr-20 12:33S 24°16' W 046°27'1313.4
2015-Apr-20 11:33S 24°28' W 046°32'1613.1
2015-Apr-20 10:22S 24°41' W 046°42'183 6.4
2015-Apr-19 05:33S 27°26' W 048°12'1919.3
2015-Apr-19 04:33S 27°45' W 048°17'  

Dump ship's entire track history